createdAt,value
2019-06-08T00:02:18.373Z,16.97
2019-06-08T00:04:49.033Z,16.70
2019-06-08T00:07:20.788Z,16.73
2019-06-08T00:09:51.458Z,16.23
2019-06-08T00:12:23.274Z,16.32
2019-06-08T00:14:53.991Z,15.20
2019-06-08T00:17:37.664Z,14.78
2019-06-08T00:19:56.622Z,15.05
2019-06-08T00:22:27.142Z,13.15
2019-06-08T00:24:57.597Z,12.80
2019-06-08T00:27:28.018Z,11.80
2019-06-08T00:29:58.508Z,10.13
2019-06-08T00:32:29.064Z,9.95
2019-06-08T00:34:59.562Z,10.50
2019-06-08T00:37:30.054Z,10.60
2019-06-08T00:40:00.606Z,9.50
2019-06-08T00:42:31.112Z,9.48
2019-06-08T00:45:01.641Z,8.87
2019-06-08T00:47:47.035Z,8.40
2019-06-08T00:50:04.526Z,8.25
2019-06-08T00:52:35.008Z,7.75
2019-06-08T00:55:05.585Z,7.70
2019-06-08T00:57:36.121Z,7.87
2019-06-08T01:00:10.528Z,7.47
2019-06-08T01:02:39.221Z,7.70
2019-06-08T01:05:10.214Z,7.50
2019-06-08T01:07:40.694Z,7.83
2019-06-08T01:10:12.906Z,7.00
2019-06-08T01:12:43.423Z,6.37
2019-06-08T01:15:14.612Z,6.95
2019-06-08T01:17:53.221Z,6.37
2019-06-08T01:20:17.447Z,6.00
2019-06-08T01:22:47.920Z,6.10
2019-06-08T01:25:20.102Z,5.80
2019-06-08T01:27:50.866Z,5.05
2019-06-08T01:30:22.198Z,5.45
2019-06-08T01:32:52.806Z,5.67
2019-06-08T01:35:24.808Z,5.10
2019-06-08T01:37:55.476Z,5.15
2019-06-08T01:40:27.354Z,5.00
2019-06-08T01:42:58.213Z,5.30
2019-06-08T01:45:32.973Z,5.05
2019-06-08T01:48:19.221Z,4.47
2019-06-08T01:50:38.290Z,4.50
2019-06-08T01:53:08.755Z,4.87
2019-06-08T01:55:39.288Z,4.40
2019-06-08T01:58:09.787Z,4.00
2019-06-08T02:00:41.625Z,4.00
2019-06-08T02:03:12.529Z,4.08
2019-06-08T02:05:43.260Z,4.42
2019-06-08T02:08:13.716Z,4.22
2019-06-08T02:10:44.207Z,4.10
2019-06-08T02:13:14.690Z,4.60
2019-06-08T02:15:45.195Z,3.80
2019-06-08T02:18:15.687Z,3.60
2019-06-08T02:20:46.175Z,3.70
2019-06-08T02:23:16.655Z,3.60
2019-06-08T02:25:47.156Z,3.47
2019-06-08T02:28:17.663Z,3.60
2019-06-08T02:30:48.199Z,3.02
2019-06-08T02:33:18.730Z,2.98
2019-06-08T02:35:49.212Z,2.52
2019-06-08T02:38:19.718Z,2.90
2019-06-08T02:40:50.205Z,2.70
2019-06-08T02:43:20.744Z,2.15
2019-06-08T02:45:51.200Z,2.90
2019-06-08T02:48:23.815Z,2.60
2019-06-08T02:50:57.068Z,2.45
2019-06-08T02:53:29.611Z,2.33
2019-06-08T02:56:01.125Z,2.40
2019-06-08T02:58:37.945Z,2.10
2019-06-08T03:01:07.700Z,2.20
2019-06-08T03:03:40.250Z,2.00
2019-06-08T03:06:10.837Z,2.10
2019-06-08T03:08:43.850Z,1.90
2019-06-08T03:11:15.969Z,2.00
2019-06-08T03:13:48.857Z,1.80
2019-06-08T03:16:19.391Z,1.90
2019-06-08T03:18:49.914Z,1.72
2019-06-08T03:21:20.525Z,1.70
2019-06-08T03:23:51.237Z,2.00
2019-06-08T03:26:21.716Z,1.75
2019-06-08T03:28:52.189Z,1.85
2019-06-08T03:31:22.703Z,1.90
2019-06-08T03:33:56.288Z,1.70
2019-06-08T03:36:25.514Z,1.90
2019-06-08T03:38:56.077Z,1.80
2019-06-08T03:41:26.577Z,1.98
2019-06-08T03:43:57.100Z,1.40
2019-06-08T03:46:27.507Z,1.50
2019-06-08T03:48:57.999Z,1.83
2019-06-08T03:51:28.381Z,1.40
2019-06-08T03:53:58.867Z,1.40
2019-06-08T03:56:29.393Z,1.70
2019-06-08T03:58:59.888Z,1.70
2019-06-08T04:01:30.382Z,1.40
2019-06-08T04:04:00.992Z,1.30
2019-06-08T04:06:31.400Z,1.50
2019-06-08T04:09:01.906Z,1.67
2019-06-08T04:11:32.421Z,1.47
2019-06-08T04:14:02.836Z,1.20
2019-06-08T04:16:33.303Z,1.30
2019-06-08T04:19:03.822Z,1.57
2019-06-08T04:21:34.307Z,1.30
2019-06-08T04:24:04.759Z,1.40
2019-06-08T04:26:35.295Z,1.10
2019-06-08T04:29:05.772Z,1.10
2019-06-08T04:31:37.827Z,1.30
2019-06-08T04:34:08.448Z,1.50
2019-06-08T04:36:39.007Z,1.10
2019-06-08T04:39:10.476Z,1.55
2019-06-08T04:41:42.608Z,1.35
2019-06-08T04:44:13.223Z,1.27
2019-06-08T04:46:45.031Z,1.40
2019-06-08T04:49:16.055Z,1.40
2019-06-08T04:51:47.631Z,1.70
2019-06-08T04:54:18.792Z,1.40
2019-06-08T04:56:49.684Z,1.45
2019-06-08T04:59:20.216Z,1.30
2019-06-08T05:01:50.613Z,1.00
2019-06-08T05:04:21.095Z,1.40
2019-06-08T05:06:51.688Z,1.27
2019-06-08T05:09:22.182Z,1.27
2019-06-08T05:11:52.657Z,1.30
2019-06-08T05:14:23.168Z,1.40
2019-06-08T05:16:53.661Z,1.10
2019-06-08T05:19:24.151Z,1.20
2019-06-08T05:21:54.621Z,1.30
2019-06-08T05:24:25.161Z,1.25
2019-06-08T05:26:55.612Z,1.00
2019-06-08T05:29:26.097Z,1.22
2019-06-08T05:31:56.593Z,1.00
2019-06-08T05:34:27.098Z,1.20
2019-06-08T05:36:57.591Z,1.10
2019-06-08T05:39:27.998Z,1.30
2019-06-08T05:41:58.488Z,1.40
2019-06-08T05:44:28.960Z,1.07
2019-06-08T05:46:59.469Z,1.20
2019-06-08T05:49:29.931Z,1.10
2019-06-08T05:52:00.406Z,1.32
2019-06-08T05:54:31.016Z,1.10
2019-06-08T05:57:01.471Z,1.40
2019-06-08T05:59:31.994Z,1.20
2019-06-08T06:02:02.555Z,1.10
2019-06-08T06:04:33.146Z,1.30
2019-06-08T06:07:03.655Z,1.12
2019-06-08T06:09:34.156Z,1.00
2019-06-08T06:12:05.461Z,1.00
2019-06-08T06:14:36.984Z,1.07
2019-06-08T06:17:07.607Z,0.80
2019-06-08T06:19:38.133Z,1.30
2019-06-08T06:22:08.625Z,1.30
2019-06-08T06:24:39.101Z,0.93
2019-06-08T06:27:09.592Z,1.05
2019-06-08T06:29:41.322Z,1.00
2019-06-08T06:32:11.848Z,0.95
2019-06-08T06:34:43.800Z,1.30
2019-06-08T06:37:14.697Z,1.10
2019-06-08T06:39:45.945Z,0.70
2019-06-08T06:42:16.581Z,0.90
2019-06-08T06:44:47.526Z,0.90
2019-06-08T06:47:19.430Z,1.10
2019-06-08T06:49:50.675Z,1.20
2019-06-08T06:52:21.430Z,1.20
2019-06-08T06:54:53.231Z,1.27
2019-06-08T06:57:23.947Z,0.80
2019-06-08T06:59:54.470Z,1.10
2019-06-08T07:02:25.110Z,1.10
2019-06-08T07:04:55.617Z,1.10
2019-06-08T07:07:26.094Z,1.20
2019-06-08T07:09:56.602Z,1.05
2019-06-08T07:12:27.122Z,1.00
2019-06-08T07:14:57.599Z,1.37
2019-06-08T07:17:28.019Z,1.02
2019-06-08T07:19:58.928Z,1.00
2019-06-08T07:22:29.547Z,1.00
2019-06-08T07:25:00.087Z,0.95
2019-06-08T07:27:30.524Z,1.10
2019-06-08T07:30:01.027Z,0.90
2019-06-08T07:32:31.507Z,1.13
2019-06-08T07:35:01.998Z,1.10
2019-06-08T07:37:32.731Z,1.20
2019-06-08T07:40:04.022Z,1.20
2019-06-08T07:42:34.513Z,1.43
2019-06-08T07:45:05.623Z,1.00
2019-06-08T07:47:36.093Z,1.40
2019-06-08T07:50:07.290Z,1.35
2019-06-08T07:52:37.802Z,1.30
2019-06-08T07:55:08.309Z,1.20
2019-06-08T07:57:38.886Z,1.40
2019-06-08T08:00:10.514Z,1.10
2019-06-08T08:02:41.030Z,0.95
2019-06-08T08:05:12.233Z,1.20
2019-06-08T08:07:42.736Z,1.22
2019-06-08T08:10:13.283Z,1.10
2019-06-08T08:12:43.828Z,1.60
2019-06-08T08:15:16.141Z,1.05
2019-06-08T08:17:46.666Z,1.10
2019-06-08T08:20:17.254Z,1.22
2019-06-08T08:22:49.759Z,1.12
2019-06-08T08:25:20.093Z,1.00
2019-06-08T08:27:51.949Z,1.25
2019-06-08T08:30:23.903Z,1.27
2019-06-08T08:32:55.134Z,1.27
2019-06-08T08:35:28.039Z,1.15
2019-06-08T08:38:02.985Z,1.17
2019-06-08T08:40:31.024Z,1.55
2019-06-08T08:43:01.769Z,1.30
2019-06-08T08:45:32.294Z,1.07
2019-06-08T08:48:20.709Z,1.30
2019-06-08T08:50:35.083Z,1.30
2019-06-08T08:53:05.626Z,1.30
2019-06-08T08:55:37.947Z,1.25
2019-06-08T08:58:09.270Z,1.37
2019-06-08T09:00:41.272Z,1.10
2019-06-08T09:03:28.483Z,1.50
2019-06-08T09:05:44.149Z,1.30
2019-06-08T09:08:14.647Z,1.30
2019-06-08T09:10:47.889Z,1.00
2019-06-08T09:13:18.641Z,1.30
2019-06-08T09:15:52.286Z,1.32
2019-06-08T09:18:22.093Z,1.12
2019-06-08T09:20:53.864Z,0.90
2019-06-08T09:23:25.638Z,1.40
2019-06-08T09:26:03.939Z,1.13
2019-06-08T09:28:29.106Z,1.63
2019-06-08T09:31:02.299Z,1.40
2019-06-08T09:33:31.894Z,1.40
2019-06-08T09:36:04.793Z,1.27
2019-06-08T09:38:34.770Z,1.27
2019-06-08T09:41:05.711Z,1.30
2019-06-08T09:43:38.801Z,1.60
2019-06-08T09:46:09.647Z,1.12
2019-06-08T09:48:40.189Z,1.30
2019-06-08T09:51:10.646Z,1.27
2019-06-08T09:53:41.821Z,1.40
2019-06-08T09:56:12.606Z,1.30
2019-06-08T09:58:43.073Z,1.40
2019-06-08T10:01:13.675Z,1.70
2019-06-08T10:03:44.209Z,1.32
2019-06-08T10:06:14.707Z,1.30
2019-06-08T10:08:45.174Z,1.60
2019-06-08T10:11:15.805Z,1.47
2019-06-08T10:13:47.801Z,1.50
2019-06-08T10:16:18.791Z,1.20
2019-06-08T10:18:51.484Z,1.50
2019-06-08T10:21:21.604Z,1.40
2019-06-08T10:23:52.134Z,1.52
2019-06-08T10:26:22.680Z,1.85
2019-06-08T10:28:53.246Z,1.67
2019-06-08T10:31:38.302Z,1.12
2019-06-08T10:33:58.610Z,1.50
2019-06-08T10:36:28.546Z,1.30
2019-06-08T10:39:02.777Z,1.50
2019-06-08T10:41:31.433Z,1.35
2019-06-08T10:44:03.394Z,1.65
2019-06-08T10:46:34.013Z,1.10
2019-06-08T10:49:08.481Z,1.37
2019-06-08T10:51:40.188Z,1.60
2019-06-08T10:54:11.179Z,1.20
2019-06-08T10:56:41.410Z,1.30
2019-06-08T10:59:12.470Z,1.27
2019-06-08T11:01:43.570Z,1.20
2019-06-08T11:04:14.175Z,1.50
2019-06-08T11:06:44.755Z,1.35
2019-06-08T11:09:18.145Z,1.75
2019-06-08T11:11:48.104Z,1.20
2019-06-08T11:14:21.886Z,1.50
2019-06-08T11:16:51.119Z,1.42
2019-06-08T11:19:21.741Z,1.27
2019-06-08T11:21:52.286Z,1.40
2019-06-08T11:24:25.163Z,1.50
2019-06-08T11:26:57.608Z,1.35
2019-06-08T11:29:27.633Z,1.30
2019-06-08T11:32:00.054Z,1.10
2019-06-08T11:34:31.167Z,1.57
2019-06-08T11:37:03.262Z,1.30
2019-06-08T11:39:34.282Z,1.45
2019-06-08T11:42:08.713Z,1.70
2019-06-08T11:44:39.088Z,1.40
2019-06-08T11:47:12.286Z,1.60
2019-06-08T11:49:41.718Z,1.60
2019-06-08T11:52:12.216Z,1.70
2019-06-08T11:54:42.805Z,1.20
2019-06-08T11:57:14.274Z,1.57
2019-06-08T11:59:44.819Z,1.67
2019-06-08T12:02:15.590Z,1.40
2019-06-08T12:04:46.142Z,1.30
2019-06-08T12:07:16.717Z,1.80
2019-06-08T12:09:49.987Z,1.32
2019-06-08T12:12:21.310Z,1.47
2019-06-08T12:14:52.028Z,1.52
2019-06-08T12:17:22.756Z,1.60
2019-06-08T12:19:53.714Z,1.15
2019-06-08T12:22:24.287Z,1.52
2019-06-08T12:24:54.884Z,1.35
2019-06-08T12:27:33.118Z,1.27
2019-06-08T12:29:58.771Z,1.00
2019-06-08T12:32:29.470Z,1.70
2019-06-08T12:35:00.273Z,1.17
2019-06-08T12:37:31.064Z,1.50
2019-06-08T12:40:21.025Z,1.10
2019-06-08T12:42:51.446Z,1.30
2019-06-08T12:45:21.992Z,1.20
2019-06-08T12:47:52.535Z,1.70
2019-06-08T12:50:23.079Z,1.40
2019-06-08T12:52:53.648Z,0.90
2019-06-08T12:55:25.414Z,1.40
2019-06-08T12:57:58.133Z,1.60
2019-06-08T13:00:28.720Z,1.30
2019-06-08T13:02:59.268Z,1.60
2019-06-08T13:05:29.759Z,1.07
2019-06-08T13:08:00.219Z,1.33
2019-06-08T13:10:30.733Z,1.17
2019-06-08T13:13:01.323Z,1.73
2019-06-08T13:15:31.859Z,1.13
2019-06-08T13:18:02.343Z,1.70
2019-06-08T13:20:32.858Z,1.00
2019-06-08T13:23:03.390Z,1.27
2019-06-08T13:25:40.075Z,1.40
2019-06-08T13:28:08.791Z,1.17
2019-06-08T13:30:38.972Z,1.50
2019-06-08T13:33:09.931Z,0.87
2019-06-08T13:35:40.504Z,1.80
2019-06-08T13:38:11.115Z,1.20
2019-06-08T13:40:41.675Z,1.30
2019-06-08T13:43:13.261Z,1.33
2019-06-08T13:45:44.008Z,1.40
2019-06-08T13:48:14.563Z,1.27
2019-06-08T13:50:46.607Z,1.03
2019-06-08T13:53:24.652Z,1.30
2019-06-08T13:55:56.314Z,1.43
2019-06-08T13:58:32.164Z,1.47
2019-06-08T14:00:57.410Z,1.60
2019-06-08T14:03:27.850Z,1.00
2019-06-08T14:05:58.425Z,1.40
2019-06-08T14:08:32.959Z,1.53
2019-06-08T14:11:01.520Z,1.00
2019-06-08T14:13:34.472Z,1.20
2019-06-08T14:16:04.481Z,1.37
2019-06-08T14:18:35.046Z,1.60
2019-06-08T14:21:05.747Z,1.20
2019-06-08T14:23:41.079Z,0.97
2019-06-08T14:26:08.707Z,1.40
2019-06-08T14:28:39.257Z,1.33
2019-06-08T14:31:10.961Z,1.17
2019-06-08T14:33:41.670Z,1.07
2019-06-08T14:36:12.218Z,1.30
2019-06-08T14:38:42.806Z,1.93
2019-06-08T14:41:13.411Z,1.03
2019-06-08T14:43:44.107Z,1.60
2019-06-08T14:46:14.722Z,1.70
2019-06-08T14:48:45.602Z,1.43
2019-06-08T14:51:16.199Z,0.93
2019-06-08T14:53:48.538Z,1.53
2019-06-08T14:56:20.158Z,1.30
2019-06-08T14:58:51.351Z,1.10
2019-06-08T15:01:23.046Z,1.40
2019-06-08T15:03:54.508Z,1.03
2019-06-08T15:06:27.759Z,1.43
2019-06-08T15:08:58.239Z,1.60
2019-06-08T15:11:34.873Z,1.10
2019-06-08T15:14:03.601Z,1.20
2019-06-08T15:16:34.148Z,1.17
2019-06-08T15:19:04.720Z,1.20
2019-06-08T15:21:38.101Z,0.80
2019-06-08T15:24:14.135Z,1.43
2019-06-08T15:26:45.273Z,1.43
2019-06-08T15:29:17.583Z,1.20
2019-06-08T15:31:48.484Z,1.50
2019-06-08T15:34:19.034Z,1.40
2019-06-08T15:36:49.609Z,1.20
2019-06-08T15:39:21.598Z,1.80
2019-06-08T15:41:52.316Z,1.53
2019-06-08T15:44:24.624Z,1.40
2019-06-08T15:46:55.245Z,1.50
2019-06-08T15:49:28.522Z,2.60
2019-06-08T15:51:58.377Z,0.97
2019-06-08T15:54:32.257Z,1.50
2019-06-08T15:57:01.203Z,1.00
2019-06-08T15:59:37.953Z,1.10
2019-06-08T16:02:04.188Z,1.07
2019-06-08T16:04:34.732Z,1.40
2019-06-08T16:07:05.582Z,1.17
2019-06-08T16:09:55.431Z,1.70
2019-06-08T16:12:26.203Z,1.47
2019-06-08T16:14:56.597Z,1.40
2019-06-08T16:17:27.178Z,1.07
2019-06-08T16:19:57.570Z,1.13
2019-06-08T16:22:28.063Z,1.57
2019-06-08T16:24:58.569Z,1.30
2019-06-08T16:27:29.701Z,1.23
2019-06-08T16:30:00.394Z,1.13
2019-06-08T16:32:31.490Z,1.17
2019-06-08T16:35:02.150Z,1.40
2019-06-08T16:37:33.501Z,1.53
2019-06-08T16:40:04.244Z,1.90
2019-06-08T16:42:34.809Z,1.73
2019-06-08T16:45:05.363Z,1.53
2019-06-08T16:47:35.929Z,1.43
2019-06-08T16:50:06.645Z,1.30
2019-06-08T16:52:37.106Z,1.03
2019-06-08T16:55:07.675Z,1.90
2019-06-08T16:57:40.770Z,1.97
2019-06-08T17:00:38.404Z,1.33
2019-06-08T17:02:44.105Z,2.00
2019-06-08T17:05:14.644Z,1.77
2019-06-08T17:07:45.126Z,1.80
2019-06-08T17:10:16.103Z,1.37
2019-06-08T17:12:46.611Z,1.70
2019-06-08T17:15:17.373Z,1.10
2019-06-08T17:17:47.865Z,1.30
2019-06-08T17:20:18.515Z,1.73
2019-06-08T17:22:49.025Z,1.73
2019-06-08T17:25:19.679Z,1.43
2019-06-08T17:27:50.082Z,1.63
2019-06-08T17:30:20.581Z,2.07
2019-06-08T17:32:51.090Z,1.50
2019-06-08T17:35:21.568Z,1.40
2019-06-08T17:37:52.094Z,1.40
2019-06-08T17:40:22.646Z,2.20
2019-06-08T17:42:53.210Z,1.90
2019-06-08T17:45:23.744Z,1.70
2019-06-08T17:47:54.248Z,1.80
2019-06-08T17:50:24.718Z,1.90
2019-06-08T17:52:55.193Z,1.70
2019-06-08T17:55:25.690Z,2.27
2019-06-08T17:57:56.101Z,2.30
2019-06-08T18:00:26.671Z,1.90
2019-06-08T18:03:00.378Z,2.30
2019-06-08T18:05:29.379Z,2.13
2019-06-08T18:07:59.874Z,1.80
2019-06-08T18:10:30.874Z,2.00
2019-06-08T18:13:01.330Z,2.03
2019-06-08T18:15:31.800Z,1.90
2019-06-08T18:18:02.224Z,2.17
2019-06-08T18:20:32.717Z,2.07
2019-06-08T18:23:03.196Z,2.20
2019-06-08T18:25:34.247Z,2.50
2019-06-08T18:28:10.330Z,1.63
2019-06-08T18:30:39.699Z,1.90
2019-06-08T18:33:09.190Z,2.10
2019-06-08T18:35:41.771Z,1.80
2019-06-08T18:38:11.956Z,1.98
2019-06-08T18:40:43.468Z,1.90
2019-06-08T18:43:14.052Z,1.97
2019-06-08T18:45:47.916Z,1.90
2019-06-08T18:48:17.578Z,1.77
2019-06-08T18:50:48.616Z,1.82
2019-06-08T18:53:19.342Z,2.10
2019-06-08T18:55:50.736Z,2.10
2019-06-08T18:58:24.987Z,2.20
2019-06-08T19:00:53.531Z,2.10
2019-06-08T19:03:24.026Z,2.00
2019-06-08T19:05:54.567Z,2.17
2019-06-08T19:08:25.112Z,2.10
2019-06-08T19:10:57.341Z,2.10
2019-06-08T19:13:27.780Z,1.70
2019-06-08T19:15:59.856Z,1.90
2019-06-08T19:18:30.696Z,1.55
2019-06-08T19:21:01.165Z,1.70
2019-06-08T19:23:31.626Z,1.70
2019-06-08T19:26:02.249Z,2.10
2019-06-08T19:28:36.330Z,1.97
2019-06-08T19:31:04.868Z,1.80
2019-06-08T19:33:35.364Z,2.15
2019-06-08T19:36:07.749Z,1.90
2019-06-08T19:38:39.731Z,2.15
2019-06-08T19:41:10.375Z,2.40
2019-06-08T19:43:42.136Z,2.35
2019-06-08T19:46:13.099Z,2.27
2019-06-08T19:48:44.473Z,2.50
2019-06-08T19:51:17.101Z,2.40
2019-06-08T19:53:52.899Z,2.50
2019-06-08T19:56:21.357Z,2.33
2019-06-08T19:59:00.948Z,2.77
2019-06-08T20:01:24.359Z,2.33
2019-06-08T20:03:54.844Z,2.20
2019-06-08T20:06:27.808Z,2.40
2019-06-08T20:08:57.763Z,2.37
2019-06-08T20:11:29.364Z,2.10
2019-06-08T20:14:00.131Z,2.52
2019-06-08T20:16:30.540Z,2.10
2019-06-08T20:19:01.076Z,1.72
2019-06-08T20:21:31.587Z,2.30
2019-06-08T20:24:02.795Z,2.00
2019-06-08T20:26:33.306Z,2.10
2019-06-08T20:29:15.524Z,2.20
2019-06-08T20:31:38.540Z,1.90
2019-06-08T20:34:08.830Z,2.30
2019-06-08T20:36:39.315Z,1.80
2019-06-08T20:39:10.020Z,1.90
2019-06-08T20:41:41.694Z,2.17
2019-06-08T20:44:12.245Z,1.60
2019-06-08T20:46:42.722Z,1.90
2019-06-08T20:49:13.260Z,2.00
2019-06-08T20:51:44.427Z,2.07
2019-06-08T20:54:17.162Z,2.20
2019-06-08T20:56:47.905Z,2.17
2019-06-08T20:59:29.834Z,2.20
2019-06-08T21:01:52.665Z,2.27
2019-06-08T21:04:23.976Z,2.50
2019-06-08T21:06:54.491Z,2.50
2019-06-08T21:09:24.998Z,2.70
2019-06-08T21:11:56.365Z,2.50
2019-06-08T21:14:27.717Z,2.62
2019-06-08T21:16:58.762Z,2.27
2019-06-08T21:19:29.462Z,2.70
2019-06-08T21:22:00.180Z,2.60
2019-06-08T21:24:30.703Z,2.58
2019-06-08T21:27:01.210Z,2.20
2019-06-08T21:29:47.015Z,1.80
2019-06-08T21:32:03.944Z,2.10
2019-06-08T21:34:34.424Z,1.95
2019-06-08T21:37:04.923Z,1.90
2019-06-08T21:39:36.685Z,1.90
2019-06-08T21:42:07.973Z,1.92
2019-06-08T21:44:39.281Z,2.20
2019-06-08T21:47:09.750Z,1.47
2019-06-08T21:49:40.289Z,1.98
2019-06-08T21:52:10.908Z,2.30
2019-06-08T21:54:41.705Z,2.10
2019-06-08T21:57:12.187Z,2.30
2019-06-08T21:59:42.701Z,1.83
2019-06-08T22:02:13.576Z,2.05
2019-06-08T22:04:44.072Z,1.70
2019-06-08T22:07:14.658Z,1.90
2019-06-08T22:09:45.144Z,1.70
2019-06-08T22:12:17.362Z,1.50
2019-06-08T22:14:47.922Z,1.70
2019-06-08T22:17:18.957Z,1.98
2019-06-08T22:19:51.503Z,1.65
2019-06-08T22:22:21.831Z,1.90
2019-06-08T22:24:53.456Z,1.50
2019-06-08T22:27:24.019Z,1.80
2019-06-08T22:29:55.548Z,1.60
2019-06-08T22:32:27.685Z,1.70
2019-06-08T22:35:00.240Z,1.62
2019-06-08T22:37:30.590Z,2.00
2019-06-08T22:40:01.170Z,1.50
2019-06-08T22:42:31.700Z,1.70
2019-06-08T22:45:03.572Z,1.80
2019-06-08T22:47:34.449Z,1.60
2019-06-08T22:50:07.785Z,1.77
2019-06-08T22:52:38.168Z,1.70
2019-06-08T22:55:10.835Z,1.50
2019-06-08T22:57:41.818Z,1.77
2019-06-08T23:00:17.582Z,1.80
2019-06-08T23:02:44.772Z,1.50
2019-06-08T23:05:18.380Z,1.83
2019-06-08T23:07:48.797Z,1.60
2019-06-08T23:10:19.569Z,1.57
2019-06-08T23:12:50.076Z,1.67
2019-06-08T23:15:20.613Z,1.50
2019-06-08T23:17:51.122Z,1.40
2019-06-08T23:20:21.640Z,1.60
2019-06-08T23:22:52.202Z,1.40
2019-06-08T23:25:22.694Z,1.40
2019-06-08T23:27:53.196Z,1.50
2019-06-08T23:30:23.746Z,1.80
2019-06-08T23:32:54.198Z,1.60
2019-06-08T23:35:24.693Z,1.30
2019-06-08T23:37:55.166Z,1.40
2019-06-08T23:40:27.233Z,1.50
2019-06-08T23:42:58.619Z,1.40
2019-06-08T23:45:30.263Z,1.50
2019-06-08T23:48:01.157Z,1.50
2019-06-08T23:50:32.215Z,1.25
2019-06-08T23:53:02.674Z,1.60
2019-06-08T23:55:33.150Z,1.30
2019-06-08T23:58:05.014Z,1.20
